sensor_id;sensor_type;location;lat;lon;timestamp;temperature;humidity
11239;DHT22;5677;48.488;13.436;2022-12-07T00:01:21;11.80;50.40
11239;DHT22;5677;48.488;13.436;2022-12-07T00:03:52;11.80;50.40
11239;DHT22;5677;48.488;13.436;2022-12-07T00:06:20;11.80;50.40
11239;DHT22;5677;48.488;13.436;2022-12-07T00:08:47;11.80;50.50
11239;DHT22;5677;48.488;13.436;2022-12-07T00:11:16;11.80;50.40
11239;DHT22;5677;48.488;13.436;2022-12-07T00:13:44;11.80;50.40
11239;DHT22;5677;48.488;13.436;2022-12-07T00:16:12;11.80;50.40
11239;DHT22;5677;48.488;13.436;2022-12-07T00:18:40;11.80;50.40
11239;DHT22;5677;48.488;13.436;2022-12-07T00:21:10;11.80;50.50
11239;DHT22;5677;48.488;13.436;2022-12-07T00:23:37;11.80;50.40
11239;DHT22;5677;48.488;13.436;2022-12-07T00:26:05;11.80;50.40
11239;DHT22;5677;48.488;13.436;2022-12-07T00:28:32;11.80;50.50
11239;DHT22;5677;48.488;13.436;2022-12-07T00:31:01;11.80;50.40
11239;DHT22;5677;48.488;13.436;2022-12-07T00:33:28;11.80;50.50
11239;DHT22;5677;48.488;13.436;2022-12-07T00:35:56;11.80;50.40
11239;DHT22;5677;48.488;13.436;2022-12-07T00:38:26;11.80;50.50
11239;DHT22;5677;48.488;13.436;2022-12-07T00:40:55;11.80;50.50
11239;DHT22;5677;48.488;13.436;2022-12-07T00:43:22;11.80;50.50
11239;DHT22;5677;48.488;13.436;2022-12-07T00:45:49;11.80;50.50
11239;DHT22;5677;48.488;13.436;2022-12-07T00:48:16;11.80;50.50
11239;DHT22;5677;48.488;13.436;2022-12-07T00:50:43;11.80;50.50
11239;DHT22;5677;48.488;13.436;2022-12-07T00:53:09;11.80;50.50
11239;DHT22;5677;48.488;13.436;2022-12-07T00:55:38;11.80;50.50
11239;DHT22;5677;48.488;13.436;2022-12-07T00:58:04;11.80;50.50
11239;DHT22;5677;48.488;13.436;2022-12-07T01:00:32;11.80;50.50
11239;DHT22;5677;48.488;13.436;2022-12-07T01:03:00;11.80;50.50
11239;DHT22;5677;48.488;13.436;2022-12-07T01:05:26;11.80;50.50
11239;DHT22;5677;48.488;13.436;2022-12-07T01:07:53;11.80;50.50
11239;DHT22;5677;48.488;13.436;2022-12-07T01:10:20;11.80;50.50
11239;DHT22;5677;48.488;13.436;2022-12-07T01:12:48;11.80;50.50
11239;DHT22;5677;48.488;13.436;2022-12-07T01:15:15;11.80;50.50
11239;DHT22;5677;48.488;13.436;2022-12-07T01:17:42;11.80;50.50
11239;DHT22;5677;48.488;13.436;2022-12-07T01:20:10;11.80;50.50
11239;DHT22;5677;48.488;13.436;2022-12-07T01:22:37;11.80;50.50
11239;DHT22;5677;48.488;13.436;2022-12-07T01:25:05;11.80;50.50
11239;DHT22;5677;48.488;13.436;2022-12-07T01:27:32;11.80;50.50
11239;DHT22;5677;48.488;13.436;2022-12-07T01:30:01;11.80;50.50
11239;DHT22;5677;48.488;13.436;2022-12-07T01:32:29;11.80;50.50
11239;DHT22;5677;48.488;13.436;2022-12-07T01:34:55;11.80;50.50
11239;DHT22;5677;48.488;13.436;2022-12-07T01:37:22;11.80;50.40
11239;DHT22;5677;48.488;13.436;2022-12-07T01:39:49;11.80;50.50
11239;DHT22;5677;48.488;13.436;2022-12-07T01:42:17;11.80;50.50
11239;DHT22;5677;48.488;13.436;2022-12-07T01:47:52;11.80;50.50
11239;DHT22;5677;48.488;13.436;2022-12-07T01:50:21;11.80;50.50
11239;DHT22;5677;48.488;13.436;2022-12-07T01:52:50;11.80;50.50
11239;DHT22;5677;48.488;13.436;2022-12-07T01:55:18;11.80;50.40
11239;DHT22;5677;48.488;13.436;2022-12-07T01:57:47;11.80;50.40
11239;DHT22;5677;48.488;13.436;2022-12-07T02:00:16;11.80;50.50
11239;DHT22;5677;48.488;13.436;2022-12-07T02:02:47;11.80;50.50
11239;DHT22;5677;48.488;13.436;2022-12-07T02:05:16;11.80;50.50
11239;DHT22;5677;48.488;13.436;2022-12-07T02:07:46;11.80;50.50
11239;DHT22;5677;48.488;13.436;2022-12-07T02:10:15;11.80;50.50
11239;DHT22;5677;48.488;13.436;2022-12-07T02:12:43;11.80;50.50
11239;DHT22;5677;48.488;13.436;2022-12-07T02:15:11;11.80;50.50
11239;DHT22;5677;48.488;13.436;2022-12-07T02:17:46;11.80;50.50
11239;DHT22;5677;48.488;13.436;2022-12-07T02:20:23;11.80;50.50
11239;DHT22;5677;48.488;13.436;2022-12-07T02:29:12;11.80;50.50
11239;DHT22;5677;48.488;13.436;2022-12-07T02:31:44;11.80;50.50
11239;DHT22;5677;48.488;13.436;2022-12-07T02:34:19;11.80;50.50
11239;DHT22;5677;48.488;13.436;2022-12-07T02:36:52;11.80;50.50
11239;DHT22;5677;48.488;13.436;2022-12-07T02:39:25;11.80;50.50
11239;DHT22;5677;48.488;13.436;2022-12-07T02:41:56;11.80;50.50
11239;DHT22;5677;48.488;13.436;2022-12-07T02:44:28;11.80;50.50
11239;DHT22;5677;48.488;13.436;2022-12-07T02:46:59;11.80;50.50
11239;DHT22;5677;48.488;13.436;2022-12-07T02:49:28;11.80;50.50
11239;DHT22;5677;48.488;13.436;2022-12-07T02:51:55;11.80;50.50
11239;DHT22;5677;48.488;13.436;2022-12-07T02:54:22;11.80;50.40
11239;DHT22;5677;48.488;13.436;2022-12-07T02:56:51;11.80;50.40
11239;DHT22;5677;48.488;13.436;2022-12-07T02:59:29;11.80;50.50
11239;DHT22;5677;48.488;13.436;2022-12-07T03:02:04;11.80;50.50
11239;DHT22;5677;48.488;13.436;2022-12-07T03:04:43;11.80;50.50
11239;DHT22;5677;48.488;13.436;2022-12-07T03:07:21;11.80;50.50
11239;DHT22;5677;48.488;13.436;2022-12-07T03:09:57;11.80;50.50
11239;DHT22;5677;48.488;13.436;2022-12-07T03:12:31;11.80;50.50
11239;DHT22;5677;48.488;13.436;2022-12-07T03:15:03;11.80;50.50
11239;DHT22;5677;48.488;13.436;2022-12-07T03:17:34;11.70;50.50
11239;DHT22;5677;48.488;13.436;2022-12-07T03:20:06;11.80;50.50
11239;DHT22;5677;48.488;13.436;2022-12-07T03:22:35;11.80;50.50
11239;DHT22;5677;48.488;13.436;2022-12-07T03:25:07;11.80;50.50
11239;DHT22;5677;48.488;13.436;2022-12-07T03:27:38;11.80;50.50
11239;DHT22;5677;48.488;13.436;2022-12-07T03:30:11;11.80;50.50
11239;DHT22;5677;48.488;13.436;2022-12-07T03:32:42;11.80;50.50
11239;DHT22;5677;48.488;13.436;2022-12-07T03:35:14;11.80;50.50
11239;DHT22;5677;48.488;13.436;2022-12-07T03:37:47;11.80;50.50
11239;DHT22;5677;48.488;13.436;2022-12-07T03:40:19;11.80;50.50
11239;DHT22;5677;48.488;13.436;2022-12-07T03:42:50;11.80;50.50
11239;DHT22;5677;48.488;13.436;2022-12-07T03:45:23;11.80;50.50
11239;DHT22;5677;48.488;13.436;2022-12-07T03:47:57;11.80;50.50
11239;DHT22;5677;48.488;13.436;2022-12-07T03:50:31;11.80;50.50
11239;DHT22;5677;48.488;13.436;2022-12-07T03:53:05;11.80;50.50
11239;DHT22;5677;48.488;13.436;2022-12-07T03:55:39;11.80;50.40
11239;DHT22;5677;48.488;13.436;2022-12-07T03:58:08;11.80;50.50
11239;DHT22;5677;48.488;13.436;2022-12-07T04:00:37;11.80;50.50
11239;DHT22;5677;48.488;13.436;2022-12-07T04:03:04;11.80;50.50
11239;DHT22;5677;48.488;13.436;2022-12-07T04:05:31;11.80;50.50
11239;DHT22;5677;48.488;13.436;2022-12-07T04:07:58;11.70;50.50
11239;DHT22;5677;48.488;13.436;2022-12-07T04:10:25;11.80;50.50
11239;DHT22;5677;48.488;13.436;2022-12-07T04:12:52;11.80;50.50
11239;DHT22;5677;48.488;13.436;2022-12-07T04:15:18;11.80;50.50
11239;DHT22;5677;48.488;13.436;2022-12-07T04:17:47;11.80;50.50
11239;DHT22;5677;48.488;13.436;2022-12-07T04:20:14;11.80;50.50
11239;DHT22;5677;48.488;13.436;2022-12-07T04:22:40;11.80;50.50
11239;DHT22;5677;48.488;13.436;2022-12-07T04:25:07;11.80;50.50
11239;DHT22;5677;48.488;13.436;2022-12-07T04:27:34;11.80;50.50
11239;DHT22;5677;48.488;13.436;2022-12-07T04:30:01;11.80;50.50
11239;DHT22;5677;48.488;13.436;2022-12-07T04:32:28;11.80;50.50
11239;DHT22;5677;48.488;13.436;2022-12-07T04:34:56;11.80;50.50
11239;DHT22;5677;48.488;13.436;2022-12-07T04:37:23;11.80;50.50
11239;DHT22;5677;48.488;13.436;2022-12-07T04:39:50;11.80;50.50
11239;DHT22;5677;48.488;13.436;2022-12-07T04:42:17;11.80;50.50
11239;DHT22;5677;48.488;13.436;2022-12-07T04:44:44;11.80;50.50
11239;DHT22;5677;48.488;13.436;2022-12-07T04:47:11;11.80;50.40
11239;DHT22;5677;48.488;13.436;2022-12-07T04:49:37;11.80;50.50
11239;DHT22;5677;48.488;13.436;2022-12-07T04:52:06;11.80;50.50
11239;DHT22;5677;48.488;13.436;2022-12-07T04:54:32;11.80;50.40
11239;DHT22;5677;48.488;13.436;2022-12-07T04:56:59;11.80;50.50
11239;DHT22;5677;48.488;13.436;2022-12-07T04:59:26;11.70;50.50
11239;DHT22;5677;48.488;13.436;2022-12-07T05:01:53;11.80;50.50
11239;DHT22;5677;48.488;13.436;2022-12-07T05:04:20;11.80;50.50
11239;DHT22;5677;48.488;13.436;2022-12-07T05:06:46;11.70;50.50
11239;DHT22;5677;48.488;13.436;2022-12-07T05:09:15;11.80;50.50
11239;DHT22;5677;48.488;13.436;2022-12-07T05:11:41;11.80;50.50
11239;DHT22;5677;48.488;13.436;2022-12-07T05:14:11;11.70;50.50
11239;DHT22;5677;48.488;13.436;2022-12-07T05:16:39;11.80;50.50
11239;DHT22;5677;48.488;13.436;2022-12-07T05:19:06;11.80;50.50
11239;DHT22;5677;48.488;13.436;2022-12-07T05:21:33;11.80;50.50
11239;DHT22;5677;48.488;13.436;2022-12-07T05:24:00;11.80;50.50
11239;DHT22;5677;48.488;13.436;2022-12-07T05:26:29;11.70;50.50
11239;DHT22;5677;48.488;13.436;2022-12-07T05:28:56;11.80;50.50
11239;DHT22;5677;48.488;13.436;2022-12-07T05:31:24;11.80;50.50
11239;DHT22;5677;48.488;13.436;2022-12-07T05:33:51;11.80;50.50
11239;DHT22;5677;48.488;13.436;2022-12-07T05:36:18;11.70;50.50
11239;DHT22;5677;48.488;13.436;2022-12-07T05:38:45;11.80;50.50
11239;DHT22;5677;48.488;13.436;2022-12-07T05:41:14;11.80;50.50
11239;DHT22;5677;48.488;13.436;2022-12-07T05:43:56;11.80;50.50
11239;DHT22;5677;48.488;13.436;2022-12-07T05:46:23;11.80;50.50
11239;DHT22;5677;48.488;13.436;2022-12-07T05:48:50;11.80;50.50
11239;DHT22;5677;48.488;13.436;2022-12-07T05:51:17;11.80;50.50
11239;DHT22;5677;48.488;13.436;2022-12-07T05:53:44;11.80;50.50
11239;DHT22;5677;48.488;13.436;2022-12-07T05:56:11;11.80;50.50
11239;DHT22;5677;48.488;13.436;2022-12-07T05:58:38;11.80;50.50
11239;DHT22;5677;48.488;13.436;2022-12-07T06:01:23;11.80;50.50
11239;DHT22;5677;48.488;13.436;2022-12-07T06:03:50;11.80;50.50
11239;DHT22;5677;48.488;13.436;2022-12-07T06:06:17;11.70;50.50
11239;DHT22;5677;48.488;13.436;2022-12-07T06:08:44;11.80;50.50
11239;DHT22;5677;48.488;13.436;2022-12-07T06:11:11;11.70;50.50
11239;DHT22;5677;48.488;13.436;2022-12-07T06:13:55;11.80;50.50
11239;DHT22;5677;48.488;13.436;2022-12-07T06:16:23;11.80;50.50
11239;DHT22;5677;48.488;13.436;2022-12-07T06:18:50;11.80;50.50
11239;DHT22;5677;48.488;13.436;2022-12-07T06:21:16;11.80;50.60
11239;DHT22;5677;48.488;13.436;2022-12-07T06:23:43;11.70;50.50
11239;DHT22;5677;48.488;13.436;2022-12-07T06:26:10;11.70;50.60
11239;DHT22;5677;48.488;13.436;2022-12-07T06:28:37;11.70;50.50
11239;DHT22;5677;48.488;13.436;2022-12-07T06:31:04;11.70;50.50
11239;DHT22;5677;48.488;13.436;2022-12-07T06:33:32;11.70;50.50
11239;DHT22;5677;48.488;13.436;2022-12-07T06:35:59;11.70;50.50
11239;DHT22;5677;48.488;13.436;2022-12-07T06:38:25;11.80;50.50
11239;DHT22;5677;48.488;13.436;2022-12-07T06:40:52;11.70;50.50
11239;DHT22;5677;48.488;13.436;2022-12-07T06:43:19;11.70;50.50
11239;DHT22;5677;48.488;13.436;2022-12-07T06:45:46;11.70;50.50
11239;DHT22;5677;48.488;13.436;2022-12-07T06:48:12;11.70;50.50
11239;DHT22;5677;48.488;13.436;2022-12-07T06:50:40;11.70;50.50
11239;DHT22;5677;48.488;13.436;2022-12-07T06:53:08;11.70;50.60
11239;DHT22;5677;48.488;13.436;2022-12-07T06:55:35;11.70;50.60
11239;DHT22;5677;48.488;13.436;2022-12-07T06:58:02;11.70;50.50
11239;DHT22;5677;48.488;13.436;2022-12-07T07:00:29;11.70;50.50
11239;DHT22;5677;48.488;13.436;2022-12-07T07:02:56;11.70;50.60
11239;DHT22;5677;48.488;13.436;2022-12-07T07:05:23;11.70;50.60
11239;DHT22;5677;48.488;13.436;2022-12-07T07:07:51;11.70;50.60
11239;DHT22;5677;48.488;13.436;2022-12-07T07:10:18;11.80;50.50
11239;DHT22;5677;48.488;13.436;2022-12-07T07:12:44;11.70;50.60
11239;DHT22;5677;48.488;13.436;2022-12-07T07:15:11;11.80;50.50
11239;DHT22;5677;48.488;13.436;2022-12-07T07:17:38;11.70;50.60
11239;DHT22;5677;48.488;13.436;2022-12-07T07:20:06;11.80;50.50
11239;DHT22;5677;48.488;13.436;2022-12-07T07:22:33;11.70;50.50
11239;DHT22;5677;48.488;13.436;2022-12-07T07:25:01;11.80;50.50
11239;DHT22;5677;48.488;13.436;2022-12-07T07:27:28;11.80;50.50
11239;DHT22;5677;48.488;13.436;2022-12-07T07:29:54;11.80;50.50
11239;DHT22;5677;48.488;13.436;2022-12-07T07:32:21;11.80;50.40
11239;DHT22;5677;48.488;13.436;2022-12-07T07:34:48;11.80;50.50
11239;DHT22;5677;48.488;13.436;2022-12-07T07:37:15;11.80;51.10
11239;DHT22;5677;48.488;13.436;2022-12-07T07:39:42;11.80;50.50
11239;DHT22;5677;48.488;13.436;2022-12-07T07:42:10;11.80;50.40
11239;DHT22;5677;48.488;13.436;2022-12-07T07:44:37;11.80;50.40
11239;DHT22;5677;48.488;13.436;2022-12-07T07:47:03;11.80;50.40
11239;DHT22;5677;48.488;13.436;2022-12-07T07:49:30;11.80;50.40
11239;DHT22;5677;48.488;13.436;2022-12-07T07:51:57;11.80;50.40
11239;DHT22;5677;48.488;13.436;2022-12-07T07:54:24;11.80;50.40
11239;DHT22;5677;48.488;13.436;2022-12-07T07:56:52;11.80;50.40
11239;DHT22;5677;48.488;13.436;2022-12-07T07:59:20;11.80;50.40
11239;DHT22;5677;48.488;13.436;2022-12-07T08:01:46;11.80;50.40
11239;DHT22;5677;48.488;13.436;2022-12-07T08:04:13;11.80;50.50
11239;DHT22;5677;48.488;13.436;2022-12-07T08:06:40;11.80;50.50
11239;DHT22;5677;48.488;13.436;2022-12-07T08:09:08;11.80;50.50
11239;DHT22;5677;48.488;13.436;2022-12-07T08:11:35;11.80;50.40
11239;DHT22;5677;48.488;13.436;2022-12-07T08:14:02;11.80;50.40
11239;DHT22;5677;48.488;13.436;2022-12-07T08:16:31;11.80;50.40
11239;DHT22;5677;48.488;13.436;2022-12-07T08:18:57;11.80;50.40
11239;DHT22;5677;48.488;13.436;2022-12-07T08:21:24;11.90;50.40
11239;DHT22;5677;48.488;13.436;2022-12-07T08:23:51;11.90;50.40
11239;DHT22;5677;48.488;13.436;2022-12-07T08:26:18;11.90;50.30
11239;DHT22;5677;48.488;13.436;2022-12-07T08:28:45;12.00;50.20
11239;DHT22;5677;48.488;13.436;2022-12-07T08:31:13;12.00;50.10
11239;DHT22;5677;48.488;13.436;2022-12-07T08:33:41;12.10;50.10
11239;DHT22;5677;48.488;13.436;2022-12-07T08:36:10;12.20;49.90
11239;DHT22;5677;48.488;13.436;2022-12-07T08:38:38;12.40;49.60
11239;DHT22;5677;48.488;13.436;2022-12-07T08:41:06;12.50;49.40
11239;DHT22;5677;48.488;13.436;2022-12-07T08:43:34;12.60;49.00
11239;DHT22;5677;48.488;13.436;2022-12-07T08:46:07;12.70;48.70
11239;DHT22;5677;48.488;13.436;2022-12-07T08:48:38;12.70;48.50
11239;DHT22;5677;48.488;13.436;2022-12-07T08:51:07;12.70;48.40
11239;DHT22;5677;48.488;13.436;2022-12-07T08:53:35;12.60;48.40
11239;DHT22;5677;48.488;13.436;2022-12-07T08:56:04;12.60;48.40
11239;DHT22;5677;48.488;13.436;2022-12-07T08:58:32;12.60;48.40
11239;DHT22;5677;48.488;13.436;2022-12-07T09:00:59;12.60;48.50
11239;DHT22;5677;48.488;13.436;2022-12-07T09:03:26;12.50;48.50
11239;DHT22;5677;48.488;13.436;2022-12-07T09:05:53;12.50;48.60
11239;DHT22;5677;48.488;13.436;2022-12-07T09:08:23;12.50;48.60
11239;DHT22;5677;48.488;13.436;2022-12-07T09:10:52;12.50;48.70
11239;DHT22;5677;48.488;13.436;2022-12-07T09:13:19;12.50;48.80
11239;DHT22;5677;48.488;13.436;2022-12-07T09:15:46;12.40;48.70
11239;DHT22;5677;48.488;13.436;2022-12-07T09:18:12;12.40;48.80
11239;DHT22;5677;48.488;13.436;2022-12-07T09:20:39;12.40;48.80
11239;DHT22;5677;48.488;13.436;2022-12-07T09:23:07;12.40;48.80
11239;DHT22;5677;48.488;13.436;2022-12-07T09:25:35;12.40;48.70
11239;DHT22;5677;48.488;13.436;2022-12-07T09:28:02;12.50;48.80
11239;DHT22;5677;48.488;13.436;2022-12-07T09:30:29;12.50;48.80
11239;DHT22;5677;48.488;13.436;2022-12-07T09:32:56;12.50;48.80
11239;DHT22;5677;48.488;13.436;2022-12-07T09:35:24;12.50;48.80
11239;DHT22;5677;48.488;13.436;2022-12-07T09:37:51;12.50;48.80
11239;DHT22;5677;48.488;13.436;2022-12-07T09:40:20;12.50;48.80
11239;DHT22;5677;48.488;13.436;2022-12-07T09:42:50;12.50;48.80
11239;DHT22;5677;48.488;13.436;2022-12-07T09:45:21;12.50;48.80
11239;DHT22;5677;48.488;13.436;2022-12-07T09:47:48;12.40;48.70
11239;DHT22;5677;48.488;13.436;2022-12-07T09:50:17;12.40;48.80
11239;DHT22;5677;48.488;13.436;2022-12-07T09:52:46;12.30;48.90
11239;DHT22;5677;48.488;13.436;2022-12-07T09:55:15;12.30;49.00
11239;DHT22;5677;48.488;13.436;2022-12-07T09:57:43;12.30;49.10
11239;DHT22;5677;48.488;13.436;2022-12-07T10:00:14;12.30;49.20
11239;DHT22;5677;48.488;13.436;2022-12-07T10:02:43;12.20;49.20
11239;DHT22;5677;48.488;13.436;2022-12-07T10:05:14;12.30;49.30
11239;DHT22;5677;48.488;13.436;2022-12-07T10:07:42;12.30;49.20
11239;DHT22;5677;48.488;13.436;2022-12-07T10:10:17;12.20;49.20
11239;DHT22;5677;48.488;13.436;2022-12-07T10:12:57;12.30;49.30
11239;DHT22;5677;48.488;13.436;2022-12-07T10:15:42;12.20;49.30
11239;DHT22;5677;48.488;13.436;2022-12-07T10:18:25;12.20;49.30
11239;DHT22;5677;48.488;13.436;2022-12-07T10:21:12;12.20;49.30
11239;DHT22;5677;48.488;13.436;2022-12-07T10:23:40;12.20;49.30
11239;DHT22;5677;48.488;13.436;2022-12-07T10:26:21;12.20;49.30
11239;DHT22;5677;48.488;13.436;2022-12-07T10:28:53;12.20;49.30
11239;DHT22;5677;48.488;13.436;2022-12-07T10:31:22;12.20;49.30
11239;DHT22;5677;48.488;13.436;2022-12-07T10:33:51;12.20;49.30
11239;DHT22;5677;48.488;13.436;2022-12-07T10:36:22;12.20;49.40
11239;DHT22;5677;48.488;13.436;2022-12-07T10:38:51;12.20;49.40
11239;DHT22;5677;48.488;13.436;2022-12-07T10:41:18;12.20;49.40
11239;DHT22;5677;48.488;13.436;2022-12-07T10:43:53;12.20;49.40
11239;DHT22;5677;48.488;13.436;2022-12-07T10:46:58;12.20;49.40
11239;DHT22;5677;48.488;13.436;2022-12-07T10:50:23;12.20;49.50
11239;DHT22;5677;48.488;13.436;2022-12-07T10:53:05;12.10;49.50
11239;DHT22;5677;48.488;13.436;2022-12-07T10:55:46;12.20;49.50
11239;DHT22;5677;48.488;13.436;2022-12-07T10:58:29;12.20;49.50
11239;DHT22;5677;48.488;13.436;2022-12-07T11:01:03;12.20;49.50
11239;DHT22;5677;48.488;13.436;2022-12-07T11:03:46;12.20;49.50
11239;DHT22;5677;48.488;13.436;2022-12-07T11:06:23;12.20;49.50
11239;DHT22;5677;48.488;13.436;2022-12-07T11:09:00;12.20;49.60
11239;DHT22;5677;48.488;13.436;2022-12-07T11:11:34;12.20;49.50
11239;DHT22;5677;48.488;13.436;2022-12-07T11:14:10;12.20;49.50
11239;DHT22;5677;48.488;13.436;2022-12-07T11:17:00;12.20;49.50
11239;DHT22;5677;48.488;13.436;2022-12-07T11:19:47;12.10;49.60
11239;DHT22;5677;48.488;13.436;2022-12-07T11:22:20;12.10;49.60
11239;DHT22;5677;48.488;13.436;2022-12-07T11:24:55;12.10;49.60
11239;DHT22;5677;48.488;13.436;2022-12-07T11:27:30;12.20;49.50
11239;DHT22;5677;48.488;13.436;2022-12-07T11:30:16;12.10;49.60
11239;DHT22;5677;48.488;13.436;2022-12-07T11:32:54;12.20;49.60
11239;DHT22;5677;48.488;13.436;2022-12-07T11:35:34;12.20;49.60
11239;DHT22;5677;48.488;13.436;2022-12-07T11:38:10;12.20;49.60
11239;DHT22;5677;48.488;13.436;2022-12-07T11:40:38;12.10;49.60
11239;DHT22;5677;48.488;13.436;2022-12-07T11:43:13;12.10;49.60
11239;DHT22;5677;48.488;13.436;2022-12-07T11:45:43;12.10;49.60
11239;DHT22;5677;48.488;13.436;2022-12-07T11:48:14;12.10;49.70
11239;DHT22;5677;48.488;13.436;2022-12-07T11:50:46;12.10;49.70
11239;DHT22;5677;48.488;13.436;2022-12-07T11:53:17;12.10;49.60
11239;DHT22;5677;48.488;13.436;2022-12-07T11:55:49;12.10;49.70
11239;DHT22;5677;48.488;13.436;2022-12-07T11:58:37;12.10;49.70
11239;DHT22;5677;48.488;13.436;2022-12-07T12:01:13;12.10;49.70
11239;DHT22;5677;48.488;13.436;2022-12-07T12:03:45;12.10;49.70
11239;DHT22;5677;48.488;13.436;2022-12-07T12:06:13;12.10;49.70
11239;DHT22;5677;48.488;13.436;2022-12-07T12:08:45;12.10;49.70
11239;DHT22;5677;48.488;13.436;2022-12-07T12:11:23;12.10;49.70
11239;DHT22;5677;48.488;13.436;2022-12-07T12:14:11;12.10;49.80
11239;DHT22;5677;48.488;13.436;2022-12-07T12:16:59;12.10;49.80
11239;DHT22;5677;48.488;13.436;2022-12-07T12:19:33;12.10;49.70
11239;DHT22;5677;48.488;13.436;2022-12-07T12:22:10;12.10;49.80
11239;DHT22;5677;48.488;13.436;2022-12-07T12:24:39;12.00;49.70
11239;DHT22;5677;48.488;13.436;2022-12-07T12:27:09;12.00;49.70
11239;DHT22;5677;48.488;13.436;2022-12-07T12:29:42;12.10;49.80
11239;DHT22;5677;48.488;13.436;2022-12-07T12:32:16;12.00;49.70
11239;DHT22;5677;48.488;13.436;2022-12-07T12:35:00;12.00;49.70
11239;DHT22;5677;48.488;13.436;2022-12-07T12:37:44;12.00;49.70
11239;DHT22;5677;48.488;13.436;2022-12-07T12:40:43;12.10;49.80
11239;DHT22;5677;48.488;13.436;2022-12-07T12:43:43;12.00;49.80
11239;DHT22;5677;48.488;13.436;2022-12-07T12:49:36;12.10;49.80
11239;DHT22;5677;48.488;13.436;2022-12-07T12:55:19;12.10;49.90
11239;DHT22;5677;48.488;13.436;2022-12-07T12:57:48;12.10;49.90
11239;DHT22;5677;48.488;13.436;2022-12-07T13:00:35;12.10;49.80
11239;DHT22;5677;48.488;13.436;2022-12-07T13:03:02;12.10;49.80
11239;DHT22;5677;48.488;13.436;2022-12-07T13:05:30;12.10;49.80
11239;DHT22;5677;48.488;13.436;2022-12-07T13:07:59;12.10;49.80
11239;DHT22;5677;48.488;13.436;2022-12-07T13:10:43;12.00;49.70
11239;DHT22;5677;48.488;13.436;2022-12-07T13:13:32;12.00;49.80
11239;DHT22;5677;48.488;13.436;2022-12-07T13:16:36;12.00;49.70
11239;DHT22;5677;48.488;13.436;2022-12-07T13:22:08;12.00;49.80
11239;DHT22;5677;48.488;13.436;2022-12-07T13:24:55;12.00;49.70
11239;DHT22;5677;48.488;13.436;2022-12-07T13:27:24;12.00;49.80
11239;DHT22;5677;48.488;13.436;2022-12-07T13:29:51;12.00;49.80
11239;DHT22;5677;48.488;13.436;2022-12-07T13:32:23;12.00;49.70
11239;DHT22;5677;48.488;13.436;2022-12-07T13:34:50;12.00;49.80
11239;DHT22;5677;48.488;13.436;2022-12-07T13:37:21;12.10;49.90
11239;DHT22;5677;48.488;13.436;2022-12-07T13:39:52;12.00;49.80
11239;DHT22;5677;48.488;13.436;2022-12-07T13:42:26;12.00;49.80
11239;DHT22;5677;48.488;13.436;2022-12-07T13:44:54;12.00;49.90
11239;DHT22;5677;48.488;13.436;2022-12-07T13:47:34;12.00;49.80
11239;DHT22;5677;48.488;13.436;2022-12-07T13:50:22;12.00;49.80
11239;DHT22;5677;48.488;13.436;2022-12-07T13:52:49;12.00;49.80
11239;DHT22;5677;48.488;13.436;2022-12-07T13:55:17;12.00;49.80
11239;DHT22;5677;48.488;13.436;2022-12-07T13:57:48;12.00;49.80
11239;DHT22;5677;48.488;13.436;2022-12-07T14:00:18;12.00;49.80
11239;DHT22;5677;48.488;13.436;2022-12-07T14:02:55;12.00;49.80
11239;DHT22;5677;48.488;13.436;2022-12-07T14:05:25;12.00;49.80
11239;DHT22;5677;48.488;13.436;2022-12-07T14:07:54;12.00;49.90
11239;DHT22;5677;48.488;13.436;2022-12-07T14:10:23;12.00;49.80
11239;DHT22;5677;48.488;13.436;2022-12-07T14:12:52;12.00;49.80
11239;DHT22;5677;48.488;13.436;2022-12-07T14:15:21;12.00;49.80
11239;DHT22;5677;48.488;13.436;2022-12-07T14:17:52;12.00;49.90
11239;DHT22;5677;48.488;13.436;2022-12-07T14:20:29;12.00;49.80
11239;DHT22;5677;48.488;13.436;2022-12-07T14:22:56;12.00;49.90
11239;DHT22;5677;48.488;13.436;2022-12-07T14:25:24;12.00;49.90
11239;DHT22;5677;48.488;13.436;2022-12-07T14:27:55;12.00;49.90
11239;DHT22;5677;48.488;13.436;2022-12-07T14:30:25;12.00;49.90
11239;DHT22;5677;48.488;13.436;2022-12-07T14:32:55;12.00;49.90
11239;DHT22;5677;48.488;13.436;2022-12-07T14:35:23;12.00;49.90
11239;DHT22;5677;48.488;13.436;2022-12-07T14:37:50;12.00;49.90
11239;DHT22;5677;48.488;13.436;2022-12-07T14:40:18;12.00;49.90
11239;DHT22;5677;48.488;13.436;2022-12-07T14:42:46;12.00;49.90
11239;DHT22;5677;48.488;13.436;2022-12-07T14:45:17;12.00;49.90
11239;DHT22;5677;48.488;13.436;2022-12-07T14:47:45;12.00;49.90
11239;DHT22;5677;48.488;13.436;2022-12-07T14:50:14;12.00;49.90
11239;DHT22;5677;48.488;13.436;2022-12-07T14:52:42;12.00;49.90
11239;DHT22;5677;48.488;13.436;2022-12-07T14:55:22;12.00;49.90
11239;DHT22;5677;48.488;13.436;2022-12-07T14:57:49;12.00;49.90
11239;DHT22;5677;48.488;13.436;2022-12-07T15:00:19;12.00;49.90
11239;DHT22;5677;48.488;13.436;2022-12-07T15:02:47;12.00;49.90
11239;DHT22;5677;48.488;13.436;2022-12-07T15:05:15;12.00;50.30
11239;DHT22;5677;48.488;13.436;2022-12-07T15:07:42;12.00;49.90
11239;DHT22;5677;48.488;13.436;2022-12-07T15:10:16;12.00;49.90
11239;DHT22;5677;48.488;13.436;2022-12-07T15:12:44;12.00;50.00
11239;DHT22;5677;48.488;13.436;2022-12-07T15:15:11;12.00;49.90
11239;DHT22;5677;48.488;13.436;2022-12-07T15:17:39;12.00;49.90
11239;DHT22;5677;48.488;13.436;2022-12-07T15:20:11;12.00;49.90
11239;DHT22;5677;48.488;13.436;2022-12-07T15:22:38;11.90;49.90
11239;DHT22;5677;48.488;13.436;2022-12-07T15:25:05;12.00;49.90
11239;DHT22;5677;48.488;13.436;2022-12-07T15:27:33;12.00;50.00
11239;DHT22;5677;48.488;13.436;2022-12-07T15:30:00;11.90;50.00
11239;DHT22;5677;48.488;13.436;2022-12-07T15:32:28;12.00;50.60
11239;DHT22;5677;48.488;13.436;2022-12-07T15:34:56;11.90;50.00
11239;DHT22;5677;48.488;13.436;2022-12-07T15:37:23;11.90;50.00
11239;DHT22;5677;48.488;13.436;2022-12-07T15:39:49;12.00;50.00
11239;DHT22;5677;48.488;13.436;2022-12-07T15:42:16;11.90;50.00
11239;DHT22;5677;48.488;13.436;2022-12-07T15:44:43;12.00;50.00
11239;DHT22;5677;48.488;13.436;2022-12-07T15:47:30;12.00;50.00
11239;DHT22;5677;48.488;13.436;2022-12-07T15:49:58;12.00;50.00
11239;DHT22;5677;48.488;13.436;2022-12-07T15:52:25;12.00;50.00
11239;DHT22;5677;48.488;13.436;2022-12-07T15:54:52;11.90;50.00
11239;DHT22;5677;48.488;13.436;2022-12-07T15:57:19;11.90;50.00
11239;DHT22;5677;48.488;13.436;2022-12-07T15:59:46;12.00;50.00
11239;DHT22;5677;48.488;13.436;2022-12-07T16:02:12;11.90;50.00
11239;DHT22;5677;48.488;13.436;2022-12-07T16:04:39;11.90;50.00
11239;DHT22;5677;48.488;13.436;2022-12-07T16:07:07;11.90;50.00
11239;DHT22;5677;48.488;13.436;2022-12-07T16:09:35;12.00;50.00